Decoded Metar for RCSS (TAIPEI in TAIWAN) (IATA:TSA) | Meteo·Mobile Aviation Weather
aviador You're here:

RCSS Decoded Metar

TAIPEI in TAIWAN
Report Time2018-12-16 15:30:00
UTC Time2018-12-16 15:50:32
Flight Rules mvfr MVFR
Wind070° at 04 kt
W.Decomp.*RWY 10: 3.6 kt HW 1.8 kt LCW
W.Rank070° ranks 11
Current wind is below 070° avg. (7.4)
Visibility9999 m
Phenomena:N/A
Clouds:Few 010 Hf
Broken 022 Hf
Broken 035 Hf
Expected CloudBase > 1,600 ft AGL from Temp-Dew spread
Ceiling2,200 ft
Temp18°C (ISA +3)
Dew Point14°C (78% RH)
AAT17.9°C
QNH1021 hPa
Density Alt322 ft
Elevation20 ft
Report Wrong Elevation
Raw Report
RCSS 161530Z 07004KT 340V120 9999 FEW010 BKN022 BKN035 18/14 Q1021
NOSIG RMK A3016=

Extra information for RCSS:More info

Metar Taf Metar & Taf Last 4 Metars F.Rules Stats Wind Profile Meteogram Temp Stats Airport Information Weather charts Add Link Nearby VenuesMetar ALERT Operation Metar Decoded Social comments